createdAt,value
2023-02-17T00:01:14.483Z,5.56
2023-02-17T00:03:48.393Z,5.57
2023-02-17T00:06:22.224Z,5.56
2023-02-17T00:08:54.884Z,5.55
2023-02-17T00:11:28.502Z,5.54
2023-02-17T00:14:01.051Z,5.60
2023-02-17T00:16:33.204Z,5.60
2023-02-17T00:19:25.040Z,5.60
2023-02-17T00:21:59.660Z,5.61
2023-02-17T00:24:33.788Z,5.65
2023-02-17T00:27:06.119Z,5.67
2023-02-17T00:29:38.627Z,5.68
2023-02-17T00:32:11.565Z,5.70
2023-02-17T00:34:44.089Z,5.69
2023-02-17T00:37:16.337Z,5.69
2023-02-17T00:39:48.539Z,5.69
2023-02-17T00:42:24.255Z,5.69
2023-02-17T00:45:11.432Z,5.74
2023-02-17T00:47:43.543Z,5.75
2023-02-17T00:50:15.828Z,5.72
2023-02-17T00:52:48.161Z,5.72
2023-02-17T00:55:20.577Z,5.73
2023-02-17T00:57:53.799Z,5.75
2023-02-17T01:00:26.456Z,5.75
2023-02-17T01:02:58.665Z,5.74
2023-02-17T01:05:31.116Z,5.73
2023-02-17T01:08:03.399Z,5.71
2023-02-17T01:10:37.310Z,5.72
2023-02-17T01:13:10.536Z,5.73
2023-02-17T01:15:44.031Z,5.80
2023-02-17T01:18:20.089Z,5.81
2023-02-17T01:20:52.721Z,5.83
2023-02-17T01:23:25.303Z,5.85
2023-02-17T01:25:59.151Z,5.84
2023-02-17T01:28:32.523Z,5.85
2023-02-17T01:31:09.932Z,5.81
2023-02-17T01:33:43.437Z,5.80
2023-02-17T01:36:20.239Z,5.77
2023-02-17T01:38:52.914Z,5.74
2023-02-17T01:41:27.835Z,5.70
2023-02-17T01:44:09.105Z,5.71
2023-02-17T01:46:44.889Z,5.74
2023-02-17T01:49:25.138Z,5.75
2023-02-17T01:52:03.282Z,5.77
2023-02-17T01:54:42.533Z,5.80
2023-02-17T01:57:18.005Z,5.83
2023-02-17T01:59:51.859Z,5.85
2023-02-17T02:02:24.838Z,5.85
2023-02-17T02:04:57.141Z,5.85
2023-02-17T02:07:33.051Z,5.83
2023-02-17T02:10:06.221Z,5.80
2023-02-17T02:12:42.563Z,5.78
2023-02-17T02:15:17.981Z,5.77
2023-02-17T02:18:04.618Z,5.80
2023-02-17T02:21:04.432Z,5.81
2023-02-17T02:24:00.175Z,5.81
2023-02-17T02:26:44.659Z,5.83
2023-02-17T02:29:57.343Z,5.83
2023-02-17T02:32:46.006Z,5.85
2023-02-17T02:35:22.097Z,5.87
2023-02-17T02:38:00.481Z,5.86
2023-02-17T02:40:37.924Z,5.83
2023-02-17T02:43:10.717Z,5.83
2023-02-17T02:45:42.978Z,5.83
2023-02-17T02:48:15.229Z,5.82
2023-02-17T02:51:02.851Z,5.82
2023-02-17T02:54:01.037Z,5.89
2023-02-17T02:56:48.149Z,5.88
2023-02-17T02:59:34.891Z,5.90
2023-02-17T03:02:14.401Z,5.93
2023-02-17T03:04:52.406Z,5.95
2023-02-17T03:07:29.644Z,5.93
2023-02-17T03:10:02.921Z,5.93
2023-02-17T03:12:37.440Z,5.92
2023-02-17T03:15:16.874Z,5.91
2023-02-17T03:17:49.257Z,5.89
2023-02-17T03:20:22.059Z,5.90
2023-02-17T03:22:54.854Z,5.93
2023-02-17T03:25:27.240Z,5.91
2023-02-17T03:27:59.685Z,5.89
2023-02-17T03:30:32.230Z,5.88
2023-02-17T03:33:04.617Z,5.90
2023-02-17T03:35:36.829Z,5.93
2023-02-17T03:38:08.973Z,5.90
2023-02-17T03:40:41.295Z,5.90
2023-02-17T03:43:13.514Z,5.90
2023-02-17T03:45:45.852Z,5.86
2023-02-17T03:48:18.081Z,5.83
2023-02-17T03:50:50.413Z,5.83
2023-02-17T03:53:22.678Z,5.88
2023-02-17T03:55:55.000Z,5.88
2023-02-17T03:58:27.215Z,5.89
2023-02-17T04:00:59.538Z,5.92
2023-02-17T04:03:32.086Z,5.96
2023-02-17T04:06:05.034Z,5.96
2023-02-17T04:08:37.810Z,5.91
2023-02-17T04:11:11.609Z,5.85
2023-02-17T04:13:43.753Z,5.82
2023-02-17T04:16:16.081Z,5.79
2023-02-17T04:18:48.293Z,5.76
2023-02-17T04:21:20.672Z,5.74
2023-02-17T04:23:54.628Z,5.76
2023-02-17T04:26:26.948Z,5.77
2023-02-17T04:28:59.450Z,5.78
2023-02-17T04:31:31.819Z,5.80
2023-02-17T04:34:04.170Z,5.80
2023-02-17T04:36:36.960Z,5.80
2023-02-17T04:39:09.171Z,5.76
2023-02-17T04:41:41.346Z,5.74
2023-02-17T04:44:13.610Z,5.72
2023-02-17T04:46:45.828Z,5.69
2023-02-17T04:49:18.021Z,5.67
2023-02-17T04:51:50.346Z,5.65
2023-02-17T04:54:23.488Z,5.70
2023-02-17T04:56:55.683Z,5.71
2023-02-17T04:59:28.033Z,5.71
2023-02-17T05:02:00.220Z,5.71
2023-02-17T05:04:32.536Z,5.71
2023-02-17T05:07:04.839Z,5.71
2023-02-17T05:09:37.263Z,5.71
2023-02-17T05:12:09.869Z,5.69
2023-02-17T05:14:42.144Z,5.68
2023-02-17T05:17:14.282Z,5.67
2023-02-17T05:19:46.507Z,5.67
2023-02-17T05:22:18.901Z,5.73
2023-02-17T05:24:51.144Z,5.72
2023-02-17T05:27:23.745Z,5.71
2023-02-17T05:29:55.995Z,5.71
2023-02-17T05:32:28.341Z,5.72
2023-02-17T05:35:00.509Z,5.75
2023-02-17T05:37:32.676Z,5.73
2023-02-17T05:40:05.485Z,5.72
2023-02-17T05:42:37.683Z,5.70
2023-02-17T05:45:12.460Z,5.67
2023-02-17T05:47:44.581Z,5.64
2023-02-17T05:50:17.064Z,5.67
2023-02-17T05:52:49.323Z,5.68
2023-02-17T05:55:22.311Z,5.69
2023-02-17T05:57:54.496Z,5.72
2023-02-17T06:00:27.411Z,5.77
2023-02-17T06:02:59.895Z,5.78
2023-02-17T06:05:32.368Z,5.80
2023-02-17T06:08:04.716Z,5.77
2023-02-17T06:10:36.897Z,5.76
2023-02-17T06:13:09.323Z,5.75
2023-02-17T06:15:41.888Z,5.71
2023-02-17T06:18:14.106Z,5.69
2023-02-17T06:20:46.405Z,5.71
2023-02-17T06:23:18.630Z,5.69
2023-02-17T06:25:50.842Z,5.68
2023-02-17T06:28:23.063Z,5.67
2023-02-17T06:30:55.365Z,5.67
2023-02-17T06:33:27.884Z,5.71
2023-02-17T06:36:00.106Z,5.72
2023-02-17T06:38:32.345Z,5.69
2023-02-17T06:41:04.669Z,5.66
2023-02-17T06:43:36.894Z,5.66
2023-02-17T06:46:09.688Z,5.65
2023-02-17T06:48:42.118Z,5.63
2023-02-17T06:51:14.413Z,5.64
2023-02-17T06:53:47.079Z,5.70
2023-02-17T06:56:21.097Z,5.73
2023-02-17T06:58:54.019Z,5.74
2023-02-17T07:01:27.569Z,5.74
2023-02-17T07:04:00.135Z,5.74
2023-02-17T07:06:32.392Z,5.77
2023-02-17T07:09:05.286Z,5.80
2023-02-17T07:11:37.534Z,5.77
2023-02-17T07:14:09.863Z,5.77
2023-02-17T07:16:42.062Z,5.76
2023-02-17T07:19:14.464Z,5.73
2023-02-17T07:21:47.246Z,5.69
2023-02-17T07:24:19.544Z,5.68
2023-02-17T07:26:53.860Z,5.74
2023-02-17T07:29:26.088Z,5.73
2023-02-17T07:31:58.303Z,5.73
2023-02-17T07:34:30.585Z,5.74
2023-02-17T07:37:02.841Z,5.76
2023-02-17T07:39:35.289Z,5.78
2023-02-17T07:42:07.567Z,5.75
2023-02-17T07:44:39.854Z,5.75
2023-02-17T07:47:11.957Z,5.73
2023-02-17T07:49:44.271Z,5.72
2023-02-17T07:52:19.674Z,5.79
2023-02-17T07:54:51.824Z,5.78
2023-02-17T07:57:23.996Z,5.80
2023-02-17T07:59:56.295Z,5.80
2023-02-17T08:02:28.512Z,5.80
2023-02-17T08:05:01.736Z,5.80
2023-02-17T08:07:34.076Z,5.78
2023-02-17T08:10:24.985Z,5.77
2023-02-17T08:13:15.303Z,5.76
2023-02-17T08:15:47.456Z,5.73
2023-02-17T08:18:19.667Z,5.73
2023-02-17T08:20:52.499Z,5.77
2023-02-17T08:23:24.779Z,5.79
2023-02-17T08:25:59.872Z,5.81
2023-02-17T08:28:32.808Z,5.82
2023-02-17T08:31:05.286Z,5.83
2023-02-17T08:33:37.541Z,5.85
2023-02-17T08:36:11.632Z,5.86
2023-02-17T08:38:48.635Z,5.83
2023-02-17T08:41:24.496Z,5.80
2023-02-17T08:43:57.020Z,5.79
2023-02-17T08:46:30.234Z,5.79
2023-02-17T08:49:02.762Z,5.85
2023-02-17T08:51:35.108Z,5.86
2023-02-17T08:54:10.428Z,5.85
2023-02-17T08:56:43.567Z,5.87
2023-02-17T08:59:18.035Z,5.86
2023-02-17T09:01:50.950Z,5.88
2023-02-17T09:04:23.327Z,5.89
2023-02-17T09:06:58.551Z,5.87
2023-02-17T09:09:32.677Z,5.85
2023-02-17T09:12:05.412Z,5.83
2023-02-17T09:14:37.831Z,5.83
2023-02-17T09:17:11.282Z,5.84
2023-02-17T09:19:43.806Z,5.90
2023-02-17T09:22:30.825Z,5.90
2023-02-17T09:25:04.127Z,5.87
2023-02-17T09:27:36.654Z,5.86
2023-02-17T09:30:11.412Z,5.86
2023-02-17T09:32:45.209Z,5.88
2023-02-17T09:35:19.307Z,5.91
2023-02-17T09:37:52.016Z,5.92
2023-02-17T09:40:29.469Z,5.91
2023-02-17T09:43:02.699Z,5.92
2023-02-17T09:45:37.530Z,5.91
2023-02-17T09:48:13.266Z,5.89
2023-02-17T09:50:51.996Z,5.94
2023-02-17T09:53:32.899Z,5.96
2023-02-17T09:56:10.784Z,5.98
2023-02-17T09:58:47.966Z,6.00
2023-02-17T10:01:22.786Z,6.03
2023-02-17T10:03:58.845Z,6.04
2023-02-17T10:06:35.181Z,6.04
2023-02-17T10:09:13.214Z,6.01
2023-02-17T10:11:49.836Z,5.99
2023-02-17T10:14:29.002Z,5.97
2023-02-17T10:17:08.265Z,5.97
2023-02-17T10:19:51.965Z,6.01
2023-02-17T10:22:25.539Z,6.02
2023-02-17T10:24:58.348Z,6.03
2023-02-17T10:27:43.305Z,6.04
2023-02-17T10:30:34.085Z,6.06
2023-02-17T10:33:22.290Z,6.08
2023-02-17T10:35:59.309Z,6.09
2023-02-17T10:38:42.457Z,6.08
2023-02-17T10:41:18.892Z,6.08
2023-02-17T10:43:51.879Z,6.07
2023-02-17T10:46:29.876Z,6.08
2023-02-17T10:49:02.874Z,6.13
2023-02-17T10:51:35.299Z,6.14
2023-02-17T10:54:17.885Z,6.15
2023-02-17T10:56:53.483Z,6.18
2023-02-17T10:59:29.875Z,6.19
2023-02-17T11:02:15.595Z,6.21
2023-02-17T11:04:49.427Z,6.22
2023-02-17T11:07:28.244Z,6.24
2023-02-17T11:10:04.637Z,6.21
2023-02-17T11:12:42.666Z,6.19
2023-02-17T11:15:19.827Z,6.17
2023-02-17T11:17:52.588Z,6.18
2023-02-17T11:20:37.157Z,6.22
2023-02-17T11:23:24.704Z,6.22
2023-02-17T11:26:19.421Z,6.22
2023-02-17T11:28:51.999Z,6.22
2023-02-17T11:31:29.272Z,6.22
2023-02-17T11:34:11.824Z,6.25
2023-02-17T11:36:47.261Z,6.30
2023-02-17T11:39:24.149Z,6.30
2023-02-17T11:41:57.781Z,6.33
2023-02-17T11:44:31.051Z,6.34
2023-02-17T11:47:11.281Z,6.33
2023-02-17T11:50:11.919Z,6.31
2023-02-17T11:53:01.242Z,6.28
2023-02-17T11:55:44.206Z,6.29
2023-02-17T11:58:30.222Z,6.33
2023-02-17T12:01:15.421Z,6.33
2023-02-17T12:04:09.610Z,6.32
2023-02-17T12:06:53.164Z,6.32
2023-02-17T12:09:30.917Z,6.33
2023-02-17T12:12:13.321Z,6.34
2023-02-17T12:15:08.636Z,6.36
2023-02-17T12:17:52.909Z,6.38
2023-02-17T12:20:38.516Z,6.42
2023-02-17T12:23:25.891Z,6.43
2023-02-17T12:26:04.767Z,6.42
2023-02-17T12:29:00.289Z,6.40
2023-02-17T12:31:50.571Z,6.38
2023-02-17T12:34:27.047Z,6.40
2023-02-17T12:37:00.544Z,6.44
2023-02-17T12:39:39.781Z,6.45
2023-02-17T12:42:17.868Z,6.45
2023-02-17T12:44:55.214Z,6.47
2023-02-17T12:47:32.443Z,6.50
2023-02-17T12:50:16.614Z,6.50
2023-02-17T12:52:53.568Z,6.51
2023-02-17T12:55:31.780Z,6.53
2023-02-17T12:58:08.026Z,6.54
2023-02-17T13:00:44.929Z,6.55
2023-02-17T13:03:17.404Z,6.56
2023-02-17T13:06:00.017Z,6.57
2023-02-17T13:08:38.607Z,6.57
2023-02-17T13:11:15.408Z,6.57
2023-02-17T13:13:47.654Z,6.57
2023-02-17T13:16:20.215Z,6.53
2023-02-17T13:18:53.706Z,6.52
2023-02-17T13:21:34.812Z,6.56
2023-02-17T13:24:14.058Z,6.55
2023-02-17T13:26:46.752Z,6.56
2023-02-17T13:29:36.747Z,6.57
2023-02-17T13:32:13.468Z,6.58
2023-02-17T13:34:47.062Z,6.59
2023-02-17T13:37:28.279Z,6.61
2023-02-17T13:40:01.536Z,6.63
2023-02-17T13:42:39.928Z,6.65
2023-02-17T13:45:22.309Z,6.68
2023-02-17T13:47:56.456Z,6.68
2023-02-17T13:50:43.838Z,6.66
2023-02-17T13:53:29.470Z,6.66
2023-02-17T13:56:03.946Z,6.67
2023-02-17T13:58:37.783Z,6.71
2023-02-17T14:01:16.731Z,6.72
2023-02-17T14:03:51.878Z,6.74
2023-02-17T14:06:29.496Z,6.75
2023-02-17T14:09:02.047Z,6.77
2023-02-17T14:11:34.500Z,6.79
2023-02-17T14:14:09.017Z,6.81
2023-02-17T14:16:44.210Z,6.83
2023-02-17T14:19:18.223Z,6.85
2023-02-17T14:22:01.987Z,6.83
2023-02-17T14:24:36.101Z,6.81
2023-02-17T14:27:09.964Z,6.79
2023-02-17T14:29:44.636Z,6.80
2023-02-17T14:32:35.037Z,6.84
2023-02-17T14:35:24.603Z,6.85
2023-02-17T14:37:57.231Z,6.86
2023-02-17T14:40:29.553Z,6.88
2023-02-17T14:43:01.762Z,6.90
2023-02-17T14:45:33.996Z,6.93
2023-02-17T14:48:06.935Z,6.95
2023-02-17T14:50:42.611Z,6.98
2023-02-17T14:53:20.335Z,6.98
2023-02-17T14:55:57.502Z,6.99
2023-02-17T14:58:31.383Z,6.98
2023-02-17T15:01:03.931Z,6.96
2023-02-17T15:03:36.072Z,6.98
2023-02-17T15:06:12.921Z,7.02
2023-02-17T15:08:49.347Z,7.03
2023-02-17T15:11:29.043Z,7.04
2023-02-17T15:14:02.978Z,7.05
2023-02-17T15:16:35.629Z,7.08
2023-02-17T15:19:07.823Z,7.10
2023-02-17T15:21:44.229Z,7.12
2023-02-17T15:24:19.143Z,7.14
2023-02-17T15:26:49.906Z,7.16
2023-02-17T15:29:24.636Z,7.17
2023-02-17T15:31:58.926Z,7.19
2023-02-17T15:34:33.978Z,7.21
2023-02-17T15:37:06.189Z,7.18
2023-02-17T15:39:38.349Z,7.16
2023-02-17T15:42:15.316Z,7.18
2023-02-17T15:44:50.017Z,7.23
2023-02-17T15:47:22.839Z,7.22
2023-02-17T15:49:55.071Z,7.23
2023-02-17T15:52:27.333Z,7.24
2023-02-17T15:55:00.462Z,7.26
2023-02-17T15:57:32.737Z,7.28
2023-02-17T16:00:06.278Z,7.30
2023-02-17T16:02:38.922Z,7.33
2023-02-17T16:05:13.216Z,7.34
2023-02-17T16:07:45.826Z,7.37
2023-02-17T16:10:21.313Z,7.39
2023-02-17T16:12:56.578Z,7.41
2023-02-17T16:15:29.695Z,7.44
2023-02-17T16:18:01.895Z,7.46
2023-02-17T16:20:35.509Z,7.48
2023-02-17T16:23:07.641Z,7.49
2023-02-17T16:25:39.886Z,7.51
2023-02-17T16:28:15.690Z,7.52
2023-02-17T16:30:49.591Z,7.54
2023-02-17T16:33:21.945Z,7.56
2023-02-17T16:35:54.237Z,7.58
2023-02-17T16:38:26.881Z,7.60
2023-02-17T16:40:59.062Z,7.61
2023-02-17T16:43:31.331Z,7.62
2023-02-17T16:46:06.355Z,7.64
2023-02-17T16:48:43.404Z,7.66
2023-02-17T16:51:15.646Z,7.68
2023-02-17T16:53:47.823Z,7.69
2023-02-17T16:56:24.287Z,7.72
2023-02-17T16:58:56.474Z,7.73
2023-02-17T17:01:28.744Z,7.75
2023-02-17T17:04:00.951Z,7.76
2023-02-17T17:06:33.182Z,7.77
2023-02-17T17:09:06.399Z,7.78
2023-02-17T17:11:38.641Z,7.80
2023-02-17T17:14:10.842Z,7.81
2023-02-17T17:16:48.216Z,7.81
2023-02-17T17:19:20.603Z,7.82
2023-02-17T17:21:53.009Z,7.85
2023-02-17T17:24:25.485Z,7.86
2023-02-17T17:26:57.824Z,7.87
2023-02-17T17:29:30.280Z,7.88
2023-02-17T17:32:02.527Z,7.89
2023-02-17T17:34:34.762Z,7.90
2023-02-17T17:37:07.367Z,7.91
2023-02-17T17:39:40.176Z,7.92
2023-02-17T17:42:13.779Z,7.93
2023-02-17T17:44:45.984Z,7.95
2023-02-17T17:47:29.342Z,7.97
2023-02-17T17:50:02.702Z,7.98
2023-02-17T17:52:35.076Z,7.99
2023-02-17T17:55:09.778Z,8.00
2023-02-17T17:57:41.051Z,8.02
2023-02-17T18:00:19.316Z,8.02
2023-02-17T18:02:51.529Z,8.03
2023-02-17T18:05:23.904Z,8.05
2023-02-17T18:07:56.559Z,8.07
2023-02-17T18:10:28.929Z,8.08
2023-02-17T18:13:01.636Z,8.09
2023-02-17T18:15:34.018Z,8.12
2023-02-17T18:18:06.834Z,8.13
2023-02-17T18:20:39.005Z,8.15
2023-02-17T18:23:11.206Z,8.17
2023-02-17T18:25:43.734Z,8.18
2023-02-17T18:28:15.979Z,8.21
2023-02-17T18:30:48.388Z,8.23
2023-02-17T18:33:20.674Z,8.26
2023-02-17T18:35:52.861Z,8.30
2023-02-17T18:38:25.312Z,8.31
2023-02-17T18:40:57.540Z,8.34
2023-02-17T18:43:29.994Z,8.35
2023-02-17T18:46:02.442Z,8.37
2023-02-17T18:48:34.754Z,8.41
2023-02-17T18:51:10.361Z,8.44
2023-02-17T18:53:43.490Z,8.47
2023-02-17T18:56:20.071Z,8.50
2023-02-17T18:58:55.325Z,8.53
2023-02-17T19:01:30.167Z,8.56
2023-02-17T19:04:04.962Z,8.58
2023-02-17T19:06:37.308Z,8.61
2023-02-17T19:09:09.578Z,8.64
2023-02-17T19:11:41.874Z,8.67
2023-02-17T19:14:14.124Z,8.69
2023-02-17T19:16:46.398Z,8.72
2023-02-17T19:19:18.781Z,8.75
2023-02-17T19:21:50.930Z,8.78
2023-02-17T19:24:23.177Z,8.79
2023-02-17T19:26:55.675Z,8.81
2023-02-17T19:29:27.971Z,8.83
2023-02-17T19:32:01.376Z,8.85
2023-02-17T19:34:33.792Z,8.87
2023-02-17T19:37:06.397Z,8.89
2023-02-17T19:39:38.705Z,8.92
2023-02-17T19:42:10.919Z,8.94
2023-02-17T19:44:43.163Z,8.96
2023-02-17T19:47:15.500Z,8.98
2023-02-17T19:49:47.953Z,9.00
2023-02-17T19:52:21.147Z,9.02
2023-02-17T19:54:53.353Z,9.03
2023-02-17T19:57:25.514Z,9.05
2023-02-17T19:59:57.838Z,9.08
2023-02-17T20:02:30.194Z,9.10
2023-02-17T20:05:02.614Z,9.12
2023-02-17T20:07:34.789Z,9.12
2023-02-17T20:10:10.878Z,9.11
2023-02-17T20:12:43.086Z,9.08
2023-02-17T20:15:15.298Z,9.02
2023-02-17T20:17:47.555Z,8.96
2023-02-17T20:20:19.970Z,8.88
2023-02-17T20:22:52.677Z,8.81
2023-02-17T20:25:24.847Z,8.76
2023-02-17T20:27:56.968Z,8.74
2023-02-17T20:30:29.239Z,8.76
2023-02-17T20:33:01.660Z,8.74
2023-02-17T20:35:35.515Z,8.73
2023-02-17T20:38:09.244Z,8.72
2023-02-17T20:40:41.385Z,8.70
2023-02-17T20:43:13.735Z,8.67
2023-02-17T20:45:46.595Z,8.62
2023-02-17T20:48:19.304Z,8.56
2023-02-17T20:50:51.598Z,8.51
2023-02-17T20:53:23.821Z,8.48
2023-02-17T20:55:56.042Z,8.50
2023-02-17T20:58:28.202Z,8.48
2023-02-17T21:01:00.325Z,8.45
2023-02-17T21:03:35.702Z,8.40
2023-02-17T21:06:20.414Z,8.32
2023-02-17T21:08:55.968Z,8.26
2023-02-17T21:11:28.377Z,8.20
2023-02-17T21:14:00.705Z,8.14
2023-02-17T21:16:34.082Z,8.08
2023-02-17T21:19:06.702Z,8.04
2023-02-17T21:21:39.257Z,8.06
2023-02-17T21:24:12.147Z,8.03
2023-02-17T21:26:44.713Z,8.00
2023-02-17T21:29:17.163Z,7.99
2023-02-17T21:31:49.539Z,7.96
2023-02-17T21:34:21.906Z,7.94
2023-02-17T21:36:54.162Z,7.93
2023-02-17T21:39:26.354Z,7.90
2023-02-17T21:41:58.643Z,7.88
2023-02-17T21:44:48.656Z,7.93
2023-02-17T21:47:21.871Z,7.92
2023-02-17T21:49:56.113Z,7.91
2023-02-17T21:52:28.412Z,7.90
2023-02-17T21:55:01.186Z,7.89
2023-02-17T21:57:33.409Z,7.85
2023-02-17T22:00:08.964Z,7.78
2023-02-17T22:02:44.444Z,7.73
2023-02-17T22:05:17.225Z,7.68
2023-02-17T22:07:52.398Z,7.61
2023-02-17T22:10:24.771Z,7.54
2023-02-17T22:12:57.072Z,7.49
2023-02-17T22:15:29.390Z,7.45
2023-02-17T22:18:02.148Z,7.49
2023-02-17T22:20:35.858Z,7.49
2023-02-17T22:23:08.095Z,7.47
2023-02-17T22:25:44.258Z,7.41
2023-02-17T22:28:16.886Z,7.37
2023-02-17T22:30:54.328Z,7.32
2023-02-17T22:33:26.581Z,7.27
2023-02-17T22:36:04.300Z,7.23
2023-02-17T22:38:37.212Z,7.19
2023-02-17T22:41:12.370Z,7.17
2023-02-17T22:43:46.082Z,7.17
2023-02-17T22:46:20.048Z,7.23
2023-02-17T22:48:53.719Z,7.24
2023-02-17T22:51:28.345Z,7.25
2023-02-17T22:54:01.187Z,7.23
2023-02-17T22:56:33.753Z,7.23
2023-02-17T22:59:06.409Z,7.22
2023-02-17T23:01:39.601Z,7.20
2023-02-17T23:13:20.126Z,7.21
2023-02-17T23:15:53.322Z,7.23
2023-02-17T23:18:25.642Z,7.24
2023-02-17T23:20:57.864Z,7.24
2023-02-17T23:23:30.435Z,7.22
2023-02-17T23:26:03.095Z,7.21
2023-02-17T23:28:35.615Z,7.20
2023-02-17T23:31:12.200Z,7.19
2023-02-17T23:33:46.692Z,7.16
2023-02-17T23:36:19.552Z,7.13
2023-02-17T23:38:52.976Z,7.11
2023-02-17T23:41:25.835Z,7.10
2023-02-17T23:43:58.136Z,7.15
2023-02-17T23:46:30.851Z,7.15
2023-02-17T23:49:03.149Z,7.13
2023-02-17T23:51:35.514Z,7.11
2023-02-17T23:54:07.828Z,7.09
2023-02-17T23:56:40.917Z,7.08
2023-02-17T23:59:13.453Z,7.07
